Time;durP1;ratioP1;P1;durP2;ratioP2;P2;SDS_P1;SDS_P2;PMS_P1;PMS_P2;Temp;Humidity;BMP_temperature;BMP_pressure;BME280_temperature;BME280_humidity;BME280_pressure;Samples;Min_cycle;Max_cycle;Signal;HPM_P1;HPM_P2
2023/09/12 00:01:17;;;;;;;9.63;7.00;;;;;;;24.37;59.30;101217.94;5048483;27;20156;-63
2023/09/12 00:03:45;;;;;;;10.88;7.20;;;;;;;24.35;59.27;101215.50;5052575;28;20045;-64
2023/09/12 00:06:13;;;;;;;12.75;7.90;;;;;;;24.34;59.32;101211.94;5051649;27;20057;-64
2023/09/12 00:08:41;;;;;;;8.95;7.15;;;;;;;24.22;59.49;101191.59;5055729;28;20109;-64
2023/09/12 00:11:11;;;;;;;9.48;6.70;;;;;;;24.29;59.27;101201.06;5057387;27;20049;-64
2023/09/12 00:13:41;;;;;;;11.52;7.80;;;;;;;24.30;59.51;101199.94;5058053;28;20044;-65
2023/09/12 00:16:10;;;;;;;9.20;6.65;;;;;;;24.29;59.57;101194.75;5054139;28;20049;-64
2023/09/12 00:18:38;;;;;;;8.77;6.63;;;;;;;24.26;59.24;101204.44;5051052;27;20056;-64
2023/09/12 00:21:07;;;;;;;8.88;6.75;;;;;;;24.24;59.55;101205.84;5054090;28;20045;-64
2023/09/12 00:23:35;;;;;;;10.10;6.13;;;;;;;24.23;59.35;101202.28;5058495;28;20052;-63
2023/09/12 00:26:03;;;;;;;9.23;6.57;;;;;;;24.19;59.58;101212.25;5049090;27;20053;-64
2023/09/12 00:28:30;;;;;;;8.90;6.28;;;;;;;24.18;59.16;101199.63;5052303;28;20053;-64
2023/09/12 00:31:00;;;;;;;12.13;7.00;;;;;;;24.15;59.50;101205.72;5054878;27;20045;-64
2023/09/12 00:33:27;;;;;;;10.38;7.18;;;;;;;24.16;59.64;101207.38;5057340;28;20051;-64
2023/09/12 00:35:55;;;;;;;9.38;6.57;;;;;;;24.11;59.50;101201.16;5102348;27;20069;-64
2023/09/12 00:38:23;;;;;;;9.98;6.85;;;;;;;24.14;59.75;101208.78;5052661;28;20497;-63
2023/09/12 00:40:51;;;;;;;10.63;7.60;;;;;;;24.12;59.60;101211.03;5059890;27;20057;-64
2023/09/12 00:43:19;;;;;;;10.07;6.68;;;;;;;24.10;59.46;101214.06;5057436;27;20045;-64
2023/09/12 00:45:46;;;;;;;9.10;6.95;;;;;;;24.09;59.57;101209.69;5055091;27;20101;-64
2023/09/12 00:48:17;;;;;;;10.07;7.00;;;;;;;24.06;59.55;101213.03;5054341;28;20128;-65
2023/09/12 00:50:47;;;;;;;9.45;6.68;;;;;;;24.05;59.70;101207.84;5052628;28;20086;-64
2023/09/12 00:53:15;;;;;;;8.77;6.50;;;;;;;24.04;60.07;101212.53;5049789;27;20084;-64
2023/09/12 00:55:47;;;;;;;10.35;6.88;;;;;;;24.04;59.67;101207.03;5051454;27;20057;-64
2023/09/12 00:58:15;;;;;;;8.57;6.72;;;;;;;24.02;59.56;101210.09;5054398;28;20093;-64
2023/09/12 01:00:43;;;;;;;9.23;6.88;;;;;;;24.02;59.52;101212.84;5052503;27;20049;-64
2023/09/12 01:03:11;;;;;;;10.63;7.13;;;;;;;24.01;59.76;101202.97;5052414;27;20585;-65
2023/09/12 01:05:42;;;;;;;8.05;6.15;;;;;;;24.00;59.54;101208.78;5055722;27;20053;-64
2023/09/12 01:08:11;;;;;;;10.40;7.05;;;;;;;23.99;59.57;101207.94;5051631;28;20136;-64
2023/09/12 01:10:38;;;;;;;9.20;6.90;;;;;;;23.98;59.49;101203.56;5053661;27;20439;-65
2023/09/12 01:13:06;;;;;;;9.25;7.30;;;;;;;23.97;59.52;101203.88;5060495;28;20049;-65
2023/09/12 01:15:34;;;;;;;8.55;6.55;;;;;;;23.95;59.41;101193.19;5053658;28;20057;-64
2023/09/12 01:18:02;;;;;;;8.68;5.80;;;;;;;23.89;59.47;101199.91;5059077;27;20049;-64
2023/09/12 01:20:33;;;;;;;11.40;6.95;;;;;;;23.94;59.68;101199.81;5050962;27;20060;-64
2023/09/12 01:23:17;;;;;;;10.25;6.63;;;;;;;23.93;59.81;101197.38;5059562;27;20094;-64
2023/09/12 01:26:14;;;;;;;10.05;7.22;;;;;;;23.90;59.67;101190.56;5058450;27;20500;-64
2023/09/12 01:28:46;;;;;;;11.00;5.85;;;;;;;23.89;59.55;101202.66;5056431;28;20049;-65
2023/09/12 01:31:16;;;;;;;13.00;6.65;;;;;;;23.83;59.73;101195.63;5056742;27;20083;-64
2023/09/12 01:33:44;;;;;;;9.45;6.57;;;;;;;23.88;60.04;101205.69;5057482;28;20357;-64
2023/09/12 01:36:12;;;;;;;9.93;6.97;;;;;;;23.87;60.07;101198.56;5054586;27;20049;-64
2023/09/12 01:38:40;;;;;;;7.93;6.25;;;;;;;23.86;60.02;101196.94;5052857;28;20072;-64
2023/09/12 01:41:09;;;;;;;7.93;6.20;;;;;;;23.81;59.85;101186.88;5054987;27;20088;-65
2023/09/12 01:43:39;;;;;;;10.20;7.38;;;;;;;23.84;59.85;101200.00;5053495;28;20049;-64
2023/09/12 01:46:09;;;;;;;10.95;6.88;;;;;;;23.83;60.09;101200.31;5059186;27;20117;-65
2023/09/12 01:48:38;;;;;;;9.32;6.50;;;;;;;23.68;60.09;101187.66;5058777;27;20081;-65
2023/09/12 01:51:07;;;;;;;8.32;6.28;;;;;;;23.81;59.89;101205.28;5057690;27;20068;-64
2023/09/12 01:53:36;;;;;;;9.35;6.70;;;;;;;23.78;60.13;101209.44;5058060;28;20049;-64
2023/09/12 01:56:04;;;;;;;10.73;6.65;;;;;;;23.77;60.20;101207.81;5055238;27;20138;-64
2023/09/12 01:58:32;;;;;;;9.00;6.40;;;;;;;23.74;60.36;101200.19;5056768;27;20053;-64
2023/09/12 02:01:00;;;;;;;10.02;6.78;;;;;;;23.73;60.64;101195.00;5056082;27;20185;-64
2023/09/12 02:03:29;;;;;;;8.52;6.85;;;;;;;23.71;60.34;101186.25;5052830;27;20071;-64
2023/09/12 02:05:57;;;;;;;10.35;7.03;;;;;;;23.68;60.43;101182.16;5054908;28;20064;-64
2023/09/12 02:08:25;;;;;;;9.52;6.55;;;;;;;23.66;60.67;101182.47;5057672;27;20037;-64
2023/09/12 02:10:53;;;;;;;13.95;7.50;;;;;;;23.65;60.49;101182.78;5050229;28;20106;-65
2023/09/12 02:13:20;;;;;;;8.80;6.50;;;;;;;23.63;60.84;101177.59;5054968;27;20061;-64
2023/09/12 02:15:48;;;;;;;12.85;6.90;;;;;;;23.62;60.80;101181.44;5056968;27;20052;-64
2023/09/12 02:18:16;;;;;;;8.88;6.53;;;;;;;23.56;60.53;101177.16;5059519;27;20045;-65
2023/09/12 02:20:48;;;;;;;8.25;6.25;;;;;;;23.58;60.61;101190.56;5053426;27;20140;-64
2023/09/12 02:23:16;;;;;;;11.52;6.72;;;;;;;23.57;61.05;101178.78;5054996;28;20148;-64
2023/09/12 02:25:44;;;;;;;9.23;6.78;;;;;;;23.56;60.95;101184.56;5059038;28;20056;-64
2023/09/12 02:28:11;;;;;;;9.10;6.53;;;;;;;23.55;60.84;101186.50;5053390;28;20466;-63
2023/09/12 02:30:40;;;;;;;9.05;6.85;;;;;;;23.53;61.04;101182.41;5055051;27;20060;-64
2023/09/12 02:33:08;;;;;;;12.30;7.53;;;;;;;23.51;60.89;101181.88;5053771;28;20455;-64
2023/09/12 02:35:36;;;;;;;10.90;6.85;;;;;;;23.50;61.01;101183.00;5073328;27;20147;-64
2023/09/12 02:38:05;;;;;;;9.07;6.70;;;;;;;23.48;61.15;101194.28;5056460;28;20041;-64
2023/09/12 02:40:33;;;;;;;10.43;7.25;;;;;;;23.47;61.15;101186.34;5056602;28;20045;-64
2023/09/12 02:43:01;;;;;;;10.48;7.38;;;;;;;23.45;61.38;101192.13;5056937;28;20045;-64
2023/09/12 02:45:29;;;;;;;13.45;7.43;;;;;;;23.44;61.58;101185.03;5055739;27;20052;-64
2023/09/12 02:47:57;;;;;;;12.32;6.93;;;;;;;23.42;61.42;101184.50;5055832;27;20061;-64
2023/09/12 02:50:25;;;;;;;9.60;6.80;;;;;;;23.41;61.14;101195.78;5056071;28;20470;-64
2023/09/12 02:52:52;;;;;;;9.68;7.25;;;;;;;23.39;61.37;101193.34;5058724;27;20498;-64
2023/09/12 02:55:21;;;;;;;8.38;6.65;;;;;;;23.38;61.25;101198.00;5058938;27;20057;-66
2023/09/12 02:57:49;;;;;;;9.73;6.57;;;;;;;23.37;61.46;101195.56;5054003;28;20482;-65
2023/09/12 03:00:17;;;;;;;10.98;7.13;;;;;;;23.33;61.56;101198.09;5054652;27;20061;-64
2023/09/12 03:02:45;;;;;;;8.80;6.55;;;;;;;23.35;61.14;101206.00;5055936;28;20132;-64
2023/09/12 03:05:13;;;;;;;9.73;7.10;;;;;;;;;;5057077;27;20121;-65
2023/09/12 03:07:41;;;;;;;11.43;6.80;;;;;;;23.31;61.30;101199.50;5051370;27;20045;-65
2023/09/12 03:10:09;;;;;;;9.65;6.43;;;;;;;23.30;61.38;101195.94;5057340;27;20045;-65
2023/09/12 03:12:38;;;;;;;8.48;6.00;;;;;;;23.29;61.13;101197.06;5051042;28;20049;-64
2023/09/12 03:15:08;;;;;;;10.45;7.35;;;;;;;23.29;61.42;101197.06;5053840;27;20041;-64
2023/09/12 03:17:37;;;;;;;7.45;5.60;;;;;;;23.28;60.88;101186.38;5054744;28;20053;-64
2023/09/12 03:20:08;;;;;;;9.20;6.45;;;;;;;23.27;60.91;101185.56;5056505;27;20504;-65
2023/09/12 03:22:37;;;;;;;8.75;6.55;;;;;;;23.25;61.26;101171.34;5060663;27;20122;-64
2023/09/12 03:25:06;;;;;;;8.63;6.32;;;;;;;23.19;61.04;101158.81;5053205;27;20052;-64
2023/09/12 03:27:34;;;;;;;7.55;6.22;;;;;;;23.23;61.36;101170.81;5050517;28;20202;-64
2023/09/12 03:30:04;;;;;;;11.95;5.95;;;;;;;23.22;60.97;101174.69;5049735;27;20072;-64
2023/09/12 03:32:32;;;;;;;9.98;6.32;;;;;;;23.22;61.16;101177.41;5056902;28;20516;-65
2023/09/12 03:35:00;;;;;;;10.52;6.60;;;;;;;23.21;61.35;101174.97;5057613;27;20048;-64
2023/09/12 03:37:28;;;;;;;8.40;5.85;;;;;;;23.20;61.10;101185.13;5051305;27;20071;-65
2023/09/12 03:39:56;;;;;;;8.15;6.25;;;;;;;23.18;61.01;101181.88;5056843;27;20298;-65
2023/09/12 03:42:24;;;;;;;9.50;6.07;;;;;;;23.17;60.82;101177.50;5054927;28;20053;-65
2023/09/12 03:45:07;;;;;;;8.63;6.63;;;;;;;23.16;61.08;101181.34;5049726;27;20048;-65
2023/09/12 03:47:34;;;;;;;7.40;5.63;;;;;;;23.14;61.07;101180.84;5051056;28;20435;-64
2023/09/12 03:50:03;;;;;;;10.98;6.47;;;;;;;23.14;61.19;101169.88;5054519;27;20488;-64
2023/09/12 03:52:31;;;;;;;11.10;6.88;;;;;;;23.13;60.95;101170.16;5056877;27;20052;-64
2023/09/12 03:55:00;;;;;;;8.48;6.60;;;;;;;23.12;61.38;101174.84;5058066;27;20476;-65
2023/09/12 03:57:28;;;;;;;10.35;6.15;;;;;;;23.10;61.38;101168.84;5052773;28;20057;-64
2023/09/12 03:59:56;;;;;;;7.40;6.32;;;;;;;23.09;61.31;101172.69;5050069;27;20045;-65
2023/09/12 04:02:25;;;;;;;9.38;6.32;;;;;;;23.07;60.84;101172.16;5056585;28;20156;-64
2023/09/12 04:04:53;;;;;;;8.18;6.85;;;;;;;23.06;61.29;101170.53;5051149;27;20061;-64
2023/09/12 04:07:21;;;;;;;9.77;6.40;;;;;;;23.05;61.17;101175.22;5049785;28;20056;-64
2023/09/12 04:09:49;;;;;;;11.95;7.25;;;;;;;23.02;61.25;101170.31;5056486;27;20045;-64
2023/09/12 04:12:16;;;;;;;14.15;7.78;;;;;;;23.02;61.42;101164.03;5053660;28;20045;-65
2023/09/12 04:14:44;;;;;;;10.88;7.30;;;;;;;22.99;61.40;101159.94;5057059;28;20057;-64
2023/09/12 04:17:12;;;;;;;10.57;7.32;;;;;;;22.99;61.68;101168.16;5061227;27;20049;-64
2023/09/12 04:19:41;;;;;;;12.13;7.88;;;;;;;22.97;61.77;101158.63;5053907;28;20451;-65
2023/09/12 04:22:09;;;;;;;10.25;7.53;;;;;;;22.97;61.50;101161.34;5057397;28;20093;-64
2023/09/12 04:24:37;;;;;;;9.07;7.15;;;;;;;22.95;61.53;101166.31;5054697;28;20049;-64
2023/09/12 04:27:05;;;;;;;9.43;7.60;;;;;;;22.93;61.86;101169.34;5054427;27;20049;-65
2023/09/12 04:29:34;;;;;;;12.52;8.05;;;;;;;22.92;61.57;101170.47;5055424;28;20049;-64
2023/09/12 04:32:03;;;;;;;9.60;7.55;;;;;;;22.90;61.61;101166.41;5053401;28;20045;-62
2023/09/12 04:34:31;;;;;;;10.23;7.35;;;;;;;22.90;61.98;101171.88;5067657;27;20051;-63
2023/09/12 04:37:02;;;;;;;15.15;8.35;;;;;;;22.86;61.71;101170.84;5074464;27;20046;-64
2023/09/12 04:39:30;;;;;;;12.43;8.07;;;;;;;22.87;61.95;101175.22;5054751;27;20062;-63
2023/09/12 04:41:58;;;;;;;10.23;7.25;;;;;;;22.86;61.67;101181.81;5068355;28;20064;-65
2023/09/12 04:44:26;;;;;;;13.70;8.57;;;;;;;22.85;61.68;101191.13;5060146;27;20053;-64
2023/09/12 04:46:54;;;;;;;9.15;7.45;;;;;;;22.85;61.68;101193.88;5057220;27;21133;-64
2023/09/12 04:49:22;;;;;;;10.38;7.18;;;;;;;22.83;62.18;101194.16;5059958;27;20515;-67
2023/09/12 04:51:50;;;;;;;9.05;7.45;;;;;;;22.82;61.56;101192.53;5056263;27;20048;-67
2023/09/12 04:54:19;;;;;;;11.90;7.20;;;;;;;22.81;61.77;101188.16;5060711;27;20079;-64
2023/09/12 04:56:47;;;;;;;11.95;7.93;;;;;;;22.81;61.70;101190.09;4708320;27;10000597;-63
2023/09/12 04:59:15;;;;;;;10.77;7.97;;;;;;;22.78;61.88;101182.44;5052553;27;20101;-64
2023/09/12 05:01:43;;;;;;;10.10;8.18;;;;;;;22.72;62.15;101179.75;5055616;27;20052;-64
2023/09/12 05:04:10;;;;;;;11.70;8.57;;;;;;;22.74;61.81;101191.25;5056501;27;20043;-63
2023/09/12 05:06:39;;;;;;;12.80;7.97;;;;;;;22.73;61.91;101186.06;5052633;28;20094;-63
2023/09/12 05:09:08;;;;;;;10.77;7.70;;;;;;;22.74;61.89;101202.22;5050934;28;20061;-64
2023/09/12 05:11:38;;;;;;;12.07;8.38;;;;;;;22.72;62.21;101187.97;5050164;28;20057;-64
2023/09/12 05:14:06;;;;;;;12.27;8.18;;;;;;;22.61;61.89;101166.50;5061425;27;20114;-64
2023/09/12 05:16:33;;;;;;;9.35;7.00;;;;;;;22.70;61.67;101175.69;5057462;28;20057;-64
2023/09/12 05:19:02;;;;;;;10.00;8.07;;;;;;;22.64;62.03;101172.19;5069737;27;20049;-67
2023/09/12 05:21:30;;;;;;;11.30;8.43;;;;;;;22.68;61.66;101178.72;5054842;28;20409;-64
2023/09/12 05:23:58;;;;;;;14.30;7.68;;;;;;;22.67;61.98;101165.31;5055376;28;20870;-64
2023/09/12 05:26:25;;;;;;;10.27;6.95;;;;;;;22.66;61.71;101164.50;5059898;27;20103;-63
2023/09/12 05:28:55;;;;;;;10.77;8.00;;;;;;;22.64;61.90;101158.50;5056384;27;20086;-64
2023/09/12 05:31:22;;;;;;;12.60;8.05;;;;;;;22.64;61.91;101150.28;5053547;28;20067;-69
2023/09/12 05:33:50;;;;;;;10.63;6.85;;;;;;;22.63;61.86;101148.66;5063556;27;20049;-65
2023/09/12 05:36:18;;;;;;;11.90;7.60;;;;;;;22.63;61.85;101156.06;5056067;27;20089;-64
2023/09/12 05:38:46;;;;;;;10.25;7.00;;;;;;;22.50;61.54;101137.63;5055869;28;20042;-63
2023/09/12 05:41:14;;;;;;;11.35;7.93;;;;;;;22.59;61.71;101153.09;5056999;27;20074;-64
2023/09/12 05:43:42;;;;;;;10.00;7.84;;;;;;;22.60;61.40;101157.47;4704494;27;10000751;-65
2023/09/12 05:46:11;;;;;;;9.48;7.05;;;;;;;22.60;61.55;101153.91;5047692;28;20045;-67
2023/09/12 05:48:39;;;;;;;11.13;7.13;;;;;;;22.58;61.41;101167.91;5055807;28;20049;-64
2023/09/12 05:51:07;;;;;;;10.13;7.45;;;;;;;22.54;61.47;101163.31;5056044;27;20107;-63
2023/09/12 05:53:35;;;;;;;8.93;7.22;;;;;;;22.56;61.58;101172.84;5052291;27;20111;-63
2023/09/12 05:56:03;;;;;;;9.93;7.45;;;;;;;22.58;62.40;101175.31;5054554;28;20125;-66
2023/09/12 05:58:30;;;;;;;13.07;7.85;;;;;;;22.57;62.10;101182.72;5053692;27;20059;-66
2023/09/12 06:00:58;;;;;;;10.45;7.53;;;;;;;22.55;62.06;101189.59;5055165;28;20048;-66
2023/09/12 06:03:27;;;;;;;11.38;7.65;;;;;;;22.55;62.10;101186.84;5057165;28;20049;-66
2023/09/12 06:05:55;;;;;;;12.45;7.30;;;;;;;22.53;61.80;101184.44;5052613;27;20064;-66
2023/09/12 06:08:23;;;;;;;9.10;7.55;;;;;;;22.54;61.97;101182.47;5051454;28;20110;-67
2023/09/12 06:10:53;;;;;;;12.48;8.32;;;;;;;22.51;62.53;101178.44;5055594;28;20052;-67
2023/09/12 06:13:21;;;;;;;9.95;7.75;;;;;;;22.49;62.30;101175.19;5052879;27;20390;-67
2023/09/12 06:15:49;;;;;;;12.85;8.73;;;;;;;22.51;62.23;101183.09;5050802;28;20062;-67
2023/09/12 06:18:18;;;;;;;11.73;8.05;;;;;;;22.49;62.24;101180.66;5060681;27;20081;-67
2023/09/12 06:20:47;;;;;;;13.25;8.20;;;;;;;22.49;62.62;101169.69;5051025;28;20053;-67
2023/09/12 06:23:15;;;;;;;13.57;8.90;;;;;;;22.47;62.86;101171.91;5059379;28;20053;-67
2023/09/12 06:25:43;;;;;;;14.55;7.57;;;;;;;22.45;62.50;101163.16;5059502;27;20060;-67
2023/09/12 06:28:11;;;;;;;15.32;8.70;;;;;;;22.45;62.35;101178.78;5060827;28;20063;-67
2023/09/12 06:30:39;;;;;;;18.25;9.52;;;;;;;22.44;62.88;101177.97;5059744;27;20040;-67
2023/09/12 06:33:09;;;;;;;13.55;8.68;;;;;;;22.44;62.77;101188.94;5054543;27;20109;-67
2023/09/12 06:35:37;;;;;;;12.00;7.72;;;;;;;22.43;62.50;101195.53;5069908;27;20049;-66
2023/09/12 06:38:10;;;;;;;9.70;7.53;;;;;;;22.43;62.30;101202.91;5061153;27;20156;-66
2023/09/12 06:40:38;;;;;;;13.93;8.85;;;;;;;22.42;62.53;101204.03;5057673;27;20484;-67
2023/09/12 06:43:06;;;;;;;12.73;8.13;;;;;;;22.36;62.49;101200.53;5055742;28;20052;-67
2023/09/12 06:45:36;;;;;;;11.40;7.60;;;;;;;22.40;62.95;101209.78;5060994;27;20058;-66
2023/09/12 06:48:05;;;;;;;11.93;7.32;;;;;;;22.39;62.45;101214.47;5060984;28;20053;-67
2023/09/12 06:50:33;;;;;;;9.93;8.02;;;;;;;22.39;62.50;101216.38;5061334;28;20136;-67
2023/09/12 06:53:03;;;;;;;13.32;7.43;;;;;;;22.37;62.62;101224.88;5059679;27;20096;-66
2023/09/12 06:55:32;;;;;;;11.55;7.25;;;;;;;22.37;62.58;101224.06;5057989;28;20088;-67
2023/09/12 06:58:00;;;;;;;9.65;7.00;;;;;;;22.36;62.46;101220.53;5061373;28;20489;-67
2023/09/12 07:00:28;;;;;;;10.52;7.63;;;;;;;22.35;62.86;101224.38;5051512;27;20045;-66
2023/09/12 07:02:56;;;;;;;11.05;6.35;;;;;;;22.35;62.72;101218.88;5059156;28;20049;-66
2023/09/12 07:05:24;;;;;;;11.77;6.82;;;;;;;22.27;62.53;101203.09;5053246;28;20055;-67
2023/09/12 07:07:53;;;;;;;11.93;7.30;;;;;;;22.33;62.46;101204.66;5047990;27;20114;-66
2023/09/12 07:10:21;;;;;;;12.60;7.60;;;;;;;22.22;62.80;101191.38;5059674;27;20403;-67
2023/09/12 07:12:53;;;;;;;12.05;7.15;;;;;;;22.32;62.59;101194.81;5060156;27;20121;-67
2023/09/12 07:15:22;;;;;;;10.07;6.28;;;;;;;22.32;62.45;101194.00;5049478;28;20127;-67
2023/09/12 07:17:50;;;;;;;9.30;5.95;;;;;;;22.29;62.67;101197.34;5057764;27;20049;-66
2023/09/12 07:20:19;;;;;;;11.43;6.72;;;;;;;22.29;62.62;101208.28;5059527;27;20067;-66
2023/09/12 07:22:47;;;;;;;11.68;6.95;;;;;;;22.26;62.33;101209.69;5063439;27;20072;-66
2023/09/12 07:25:16;;;;;;;10.57;6.53;;;;;;;22.27;62.64;101213.25;5060559;27;20045;-66
2023/09/12 07:27:44;;;;;;;8.80;5.97;;;;;;;22.27;62.35;101215.97;5061578;27;20057;-66
2023/09/12 07:30:13;;;;;;;9.63;6.18;;;;;;;22.28;62.32;101220.34;5057449;28;20041;-66
2023/09/12 07:32:41;;;;;;;7.45;5.65;;;;;;;22.28;62.15;101217.59;5058881;27;20049;-66
2023/09/12 07:35:09;;;;;;;8.20;5.95;;;;;;;22.28;62.16;101212.94;5065674;27;20154;-66
2023/09/12 07:37:37;;;;;;;8.25;5.80;;;;;;;22.27;62.53;101214.06;5059460;28;20098;-66
2023/09/12 07:40:09;;;;;;;9.38;5.53;;;;;;;22.29;62.44;101214.56;5057434;28;20053;-66
2023/09/12 07:42:37;;;;;;;9.02;6.30;;;;;;;22.31;62.15;101217.03;5059280;28;20112;-66
2023/09/12 07:45:06;;;;;;;8.00;5.63;;;;;;;22.32;62.16;101218.66;5059117;27;20049;-66
2023/09/12 07:47:35;;;;;;;7.60;5.28;;;;;;;22.31;62.37;101223.31;5059676;28;20049;-66
2023/09/12 07:50:06;;;;;;;6.20;4.78;;;;;;;22.25;62.02;101208.06;5056821;27;20072;-65
2023/09/12 07:52:34;;;;;;;7.90;5.30;;;;;;;22.35;61.86;101212.59;5057262;28;20053;-66
2023/09/12 07:55:03;;;;;;;7.47;4.90;;;;;;;22.24;61.79;101194.66;5060775;27;20577;-66
2023/09/12 07:57:31;;;;;;;7.55;4.45;;;;;;;22.37;61.85;101204.91;5054546;27;20051;-66
2023/09/12 07:59:59;;;;;;;6.38;4.80;;;;;;;22.28;62.15;101202.00;5050507;27;20202;-66
2023/09/12 08:02:27;;;;;;;7.40;4.65;;;;;;;22.39;62.15;101219.94;5055576;27;20127;-66
2023/09/12 08:04:56;;;;;;;10.00;4.88;;;;;;;22.39;61.69;101219.94;5053855;27;20049;-66
2023/09/12 08:07:24;;;;;;;6.05;4.65;;;;;;;22.40;62.09;101229.78;5054677;27;20055;-66
2023/09/12 08:09:53;;;;;;;6.93;4.40;;;;;;;22.40;62.12;101232.53;5056660;27;20378;-66
2023/09/12 08:12:23;;;;;;;6.57;4.93;;;;;;;22.40;61.97;101240.75;5056386;27;20144;-66
2023/09/12 08:14:51;;;;;;;7.32;4.70;;;;;;;22.42;62.05;101242.38;5056818;27;20124;-66
2023/09/12 08:17:19;;;;;;;5.00;3.70;;;;;;;22.43;61.66;101246.75;5055140;27;20052;-66
2023/09/12 08:19:47;;;;;;;5.32;4.20;;;;;;;22.43;61.84;101266.72;5054885;27;20053;-66
2023/09/12 08:22:18;;;;;;;6.00;4.20;;;;;;;22.44;61.78;101260.16;5052219;27;20053;-66
2023/09/12 08:24:46;;;;;;;6.95;4.32;;;;;;;22.45;61.83;101264.53;5059424;27;20428;-66
2023/09/12 08:27:14;;;;;;;9.10;5.07;;;;;;;22.45;61.75;101266.44;5057147;27;20105;-66
2023/09/12 08:29:44;;;;;;;6.20;4.25;;;;;;;22.44;61.72;101268.38;5052659;27;20148;-66
2023/09/12 08:32:12;;;;;;;6.85;4.43;;;;;;;22.45;61.94;101266.44;5052544;27;20074;-66
2023/09/12 08:34:40;;;;;;;6.38;3.90;;;;;;;22.45;61.94;101272.72;5069963;27;20053;-66
2023/09/12 08:37:08;;;;;;;7.88;4.15;;;;;;;22.46;61.96;101268.88;5057171;27;20074;-66
2023/09/12 08:39:43;;;;;;;7.82;4.05;;;;;;;22.46;61.80;101274.38;5054182;27;20459;-66
2023/09/12 08:42:12;;;;;;;;;;;;;;;22.48;61.63;101271.34;5060001;27;20045;-67
2023/09/12 08:44:41;;;;;;;6.38;3.97;;;;;;;22.47;61.70;101273.25;5057844;27;19920;-66
2023/09/12 08:47:10;;;;;;;6.35;3.72;;;;;;;22.47;62.15;101273.25;5052957;27;20046;-66
2023/09/12 08:49:39;;;;;;;7.32;4.07;;;;;;;22.47;62.10;101273.25;5054944;27;20136;-66
2023/09/12 08:52:07;;;;;;;5.47;4.40;;;;;;;22.48;62.08;101282.28;5068951;27;20094;-66
2023/09/12 08:54:35;;;;;;;5.53;3.88;;;;;;;22.48;62.27;101296.81;5055427;27;20090;-67
2023/09/12 08:57:06;;;;;;;7.93;3.58;;;;;;;22.49;62.09;101292.97;5059679;27;20087;-65
2023/09/12 08:59:35;;;;;;;5.53;3.55;;;;;;;22.50;61.87;101286.38;5055974;27;20057;-66
2023/09/12 09:02:06;;;;;;;4.30;3.25;;;;;;;22.49;61.79;101279.25;5053429;27;21511;-67
2023/09/12 09:04:36;;;;;;;6.78;4.00;;;;;;;22.49;62.04;101265.56;5050369;27;20061;-66
2023/09/12 09:07:05;;;;;;;5.22;3.60;;;;;;;22.50;62.13;101258.16;5052373;27;20053;-66
2023/09/12 09:09:33;;;;;;;5.70;3.60;;;;;;;22.50;61.91;101253.50;5054689;27;20057;-66
2023/09/12 09:12:01;;;;;;;4.82;3.38;;;;;;;22.51;62.18;101260.63;5056241;27;20041;-67
2023/09/12 09:14:32;;;;;;;8.82;3.95;;;;;;;22.51;62.30;101254.31;5053303;27;20056;-66
2023/09/12 09:17:00;;;;;;;6.03;3.65;;;;;;;22.51;61.85;101252.41;5050356;27;20042;-66
2023/09/12 09:19:41;;;;;;;6.55;3.80;;;;;;;22.49;62.20;101251.06;5063266;27;20147;-66
2023/09/12 09:22:10;;;;;;;5.70;3.22;;;;;;;22.47;61.98;101243.13;5060379;27;20045;-66
2023/09/12 09:24:37;;;;;;;5.28;3.22;;;;;;;22.54;62.14;101257.25;5052304;27;20056;-66
2023/09/12 09:27:05;;;;;;;8.95;3.05;;;;;;;22.52;62.20;101240.34;5066583;27;20053;-66
2023/09/12 09:29:47;;;;;;;5.13;3.10;;;;;;;22.49;61.90;101234.63;5055709;27;20117;-66
2023/09/12 09:32:21;;;;;;;5.15;3.00;;;;;;;22.57;61.75;101247.63;5060820;27;20053;-66
2023/09/12 09:34:49;;;;;;;7.70;3.75;;;;;;;22.58;62.10;101241.06;5068314;27;20520;-66
2023/09/12 09:37:19;;;;;;;6.85;3.70;;;;;;;22.58;61.73;101244.59;5058395;27;20044;-66
2023/09/12 09:39:52;;;;;;;4.30;3.08;;;;;;;22.58;62.22;101244.59;5055594;27;20187;-66
2023/09/12 09:42:20;;;;;;;4.13;3.58;;;;;;;22.62;62.12;101244.84;5058436;27;20067;-66
2023/09/12 09:44:50;;;;;;;4.43;2.75;;;;;;;22.63;61.98;101247.28;5055396;27;20051;-66
2023/09/12 09:47:19;;;;;;;4.65;3.20;;;;;;;22.65;62.17;101244.25;5058938;27;20049;-66
2023/09/12 09:49:47;;;;;;;5.47;3.55;;;;;;;22.66;62.40;101245.88;5061529;27;20052;-66
2023/09/12 09:52:15;;;;;;;6.25;4.03;;;;;;;22.68;62.11;101246.41;5058199;27;20070;-66
2023/09/12 09:54:46;;;;;;;6.15;3.75;;;;;;;22.70;62.54;101249.69;5052166;27;20074;-67
2023/09/12 09:57:14;;;;;;;6.07;3.72;;;;;;;22.72;62.18;101253.75;5053752;27;20049;-66
2023/09/12 09:59:42;;;;;;;8.52;4.15;;;;;;;22.75;62.44;101238.66;5050729;27;20421;-66
2023/09/12 10:02:21;;;;;;;6.72;4.25;;;;;;;22.77;62.38;101246.56;5054355;27;20037;-66
2023/09/12 10:04:51;;;;;;;6.65;3.83;;;;;;;22.78;62.41;101249.03;5054970;27;20124;-67
2023/09/12 10:07:29;;;;;;;7.60;4.97;;;;;;;22.79;62.70;101234.25;5055851;27;20186;-67
2023/09/12 10:09:58;;;;;;;6.55;4.30;;;;;;;22.81;62.99;101239.44;5058196;27;20057;-66
2023/09/12 10:12:28;;;;;;;8.65;4.88;;;;;;;22.80;62.50;101235.06;5057885;27;20076;-67
2023/09/12 10:14:57;;;;;;;5.50;3.95;;;;;;;22.84;62.82;101239.66;5054439;27;20199;-67
2023/09/12 10:17:36;;;;;;;6.55;4.50;;;;;;;22.85;62.91;101235.81;5055988;27;20056;-67
2023/09/12 10:20:09;;;;;;;7.88;4.47;;;;;;;22.88;62.84;101237.16;5056920;27;20455;-67
2023/09/12 10:22:41;;;;;;;6.75;4.95;;;;;;;22.90;63.18;101235.75;5057914;27;20042;-67
2023/09/12 10:25:10;;;;;;;7.55;4.22;;;;;;;22.93;62.85;101228.84;5053407;27;20045;-67
2023/09/12 10:27:38;;;;;;;7.75;4.57;;;;;;;22.94;62.68;101225.81;5049913;27;20079;-67
2023/09/12 10:30:09;;;;;;;9.48;5.22;;;;;;;22.96;62.92;101220.84;5053290;27;20052;-67
2023/09/12 10:32:39;;;;;;;9.25;5.57;;;;;;;22.97;62.82;101222.47;5053212;27;20056;-67
2023/09/12 10:35:09;;;;;;;7.90;5.22;;;;;;;23.01;63.06;101228.19;5063675;27;20176;-66
2023/09/12 10:37:41;;;;;;;7.28;4.40;;;;;;;23.02;63.26;101230.63;5058368;27;21010;-66
2023/09/12 10:40:12;;;;;;;8.05;5.47;;;;;;;23.04;63.31;101231.16;5050876;27;20449;-67
2023/09/12 10:42:40;;;;;;;6.93;4.45;;;;;;;23.07;63.34;101231.66;5053666;27;20070;-66
2023/09/12 10:45:09;;;;;;;8.63;5.18;;;;;;;23.10;63.45;101237.38;5062659;27;20046;-67
2023/09/12 10:47:39;;;;;;;7.18;4.95;;;;;;;23.12;63.11;101237.09;5051563;27;20049;-67
2023/09/12 10:50:08;;;;;;;5.90;3.85;;;;;;;23.17;63.01;101232.34;5058806;27;20057;-67
2023/09/12 10:52:39;;;;;;;7.72;4.65;;;;;;;23.22;62.82;101232.25;5055848;27;20098;-67
2023/09/12 10:55:08;;;;;;;7.30;4.75;;;;;;;23.26;62.98;101227.81;5059885;27;20073;-66
2023/09/12 10:57:56;;;;;;;7.57;4.45;;;;;;;23.15;63.14;101207.16;5047587;28;20099;-66
2023/09/12 11:00:24;;;;;;;7.20;4.40;;;;;;;23.31;63.15;101226.94;5054080;27;20072;-66
2023/09/12 11:02:53;;;;;;;6.85;4.32;;;;;;;23.33;63.25;101225.50;5056119;27;20112;-67
2023/09/12 11:05:53;;;;;;;7.88;4.68;;;;;;;23.35;63.26;101228.78;5054545;27;20361;-67
2023/09/12 11:08:22;;;;;;;9.07;5.22;;;;;;;23.36;63.02;101219.44;5057690;27;20460;-67
2023/09/12 11:11:22;;;;;;;8.40;4.43;;;;;;;23.37;63.06;101220.25;5056796;27;20064;-67
2023/09/12 11:14:04;;;;;;;6.80;4.00;;;;;;;23.38;62.66;101217.19;5056148;27;20056;-67
2023/09/12 11:16:33;;;;;;;7.35;4.55;;;;;;;23.40;63.05;101211.41;5054663;27;20378;-67
2023/09/12 11:19:16;;;;;;;5.10;3.78;;;;;;;23.40;62.60;101205.94;5055503;27;20409;-67
2023/09/12 11:21:45;;;;;;;8.75;4.72;;;;;;;23.45;62.67;101214.06;5056853;27;20152;-67
2023/09/12 11:24:14;;;;;;;7.35;4.97;;;;;;;23.47;62.71;101217.34;5054093;27;20052;-67
2023/09/12 11:26:55;;;;;;;8.05;4.85;;;;;;;23.50;62.79;101215.94;5054129;27;20061;-67
2023/09/12 11:29:25;;;;;;;8.88;5.00;;;;;;;23.51;62.61;101218.38;5053306;27;20055;-67
2023/09/12 11:31:57;;;;;;;9.25;5.93;;;;;;;23.48;62.59;101213.47;5055120;27;20124;-66